Time;durP1;ratioP1;P1;durP2;ratioP2;P2;SDS_P1;SDS_P2;PMS_P1;PMS_P2;Temp;Humidity;BMP_temperature;BMP_pressure;BME280_temperature;BME280_humidity;BME280_pressure;Samples;Min_cycle;Max_cycle;Signal;HPM_P1;HPM_P2
2022/11/18 05:30:56;;;;;;;;;2.00;0.00;;;;;9.77;77.40;99800.50;4990415;28;45886;-73
2022/11/18 05:33:21;;;;;;;;;1.00;1.00;;;;;9.70;77.24;99802.63;4969637;28;45593;-73
2022/11/18 05:35:47;;;;;;;;;1.50;1.25;;;;;9.74;76.97;99812.22;4969503;28;45364;-74
2022/11/18 05:38:12;;;;;;;;;0.00;0.00;;;;;9.78;77.32;99813.75;4974354;28;45423;-75
2022/11/18 05:40:37;;;;;;;;;2.50;0.25;;;;;9.77;76.96;99793.31;4975590;28;45330;-73
2022/11/18 05:43:12;;;;;;;;;0.00;0.00;;;;;9.75;76.86;99811.28;4958347;28;45354;-74
2022/11/18 05:45:42;;;;;;;;;1.00;1.00;;;;;9.83;76.76;99813.50;4987493;28;45531;-74
2022/11/18 05:48:08;;;;;;;;;1.00;0.00;;;;;9.85;76.75;99820.53;4967269;28;45338;-74
2022/11/18 05:50:37;;;;;;;;;1.50;1.00;;;;;9.82;76.52;99823.34;4969259;28;45665;-72
2022/11/18 05:53:03;;;;;;;;;1.00;1.00;;;;;9.85;76.26;99825.00;4956210;28;45421;-75
2022/11/18 05:55:50;;;;;;;;;1.25;1.25;;;;;9.88;76.54;99828.34;4956113;28;45436;-75
2022/11/18 05:58:16;;;;;;;;;4.00;0.25;;;;;9.90;76.59;99830.94;4934648;28;46242;-74
2022/11/18 06:00:43;;;;;;;;;2.00;0.00;;;;;9.85;76.06;99833.91;4969077;28;45346;-74
2022/11/18 06:03:16;;;;;;;;;0.00;0.00;;;;;9.86;76.11;99832.97;4956229;28;45424;-74
2022/11/18 06:05:42;;;;;;;;;0.25;0.25;;;;;9.80;76.26;99840.44;4969166;28;45364;-74
2022/11/18 06:08:09;;;;;;;;;1.00;1.00;;;;;9.72;76.10;99832.84;4968733;28;45447;-78
2022/11/18 06:10:36;;;;;;;;;2.50;1.00;;;;;9.56;76.34;99820.44;4961646;28;45736;-73
2022/11/18 06:13:08;;;;;;;;;0.75;0.75;;;;;9.74;76.17;99849.69;4974578;28;45482;-74
2022/11/18 06:15:38;;;;;;;;;1.00;1.00;;;;;9.66;76.17;99859.97;4964160;28;45376;-74
2022/11/18 06:18:15;;;;;;;;;1.00;1.00;;;;;9.69;76.75;99859.81;4972729;28;45250;-75
2022/11/18 06:20:41;;;;;;;;;1.00;1.00;;;;;9.62;76.34;99866.44;4957636;28;45416;-75
2022/11/18 06:23:09;;;;;;;;;3.50;1.00;;;;;9.58;76.77;99866.72;4976016;28;45314;-77
2022/11/18 06:25:39;;;;;;;;;3.00;1.00;;;;;9.62;76.69;99885.16;4958864;28;45406;-78
2022/11/18 06:28:04;;;;;;;;;1.00;1.00;;;;;9.49;76.38;99860.91;4972623;28;45455;-82
2022/11/18 06:30:29;;;;;;;;;1.50;1.50;;;;;9.58;76.46;99872.94;4971429;28;45429;-79
2022/11/18 06:32:55;;;;;;;;;1.00;1.00;;;;;9.69;76.29;99891.06;4981043;28;45393;-81
2022/11/18 06:35:20;;;;;;;;;3.00;1.00;;;;;9.66;76.29;99892.09;4980307;28;45477;-74
2022/11/18 06:37:46;;;;;;;;;0.25;0.25;;;;;9.44;76.33;99856.78;4979057;28;45385;-77
2022/11/18 06:40:12;;;;;;;;;3.00;1.00;;;;;9.67;76.58;99892.97;4977155;28;45313;-75
2022/11/18 06:45:21;;;;;;;;;2.75;1.25;;;;;9.59;76.29;99898.75;4975786;28;45484;-76
2022/11/18 06:47:47;;;;;;;;;3.00;1.00;;;;;9.54;76.39;99908.81;4975310;28;45406;-78
2022/11/18 06:50:12;;;;;;;;;4.25;1.75;;;;;9.54;76.23;99914.16;4958179;28;45628;-77
2022/11/18 06:52:38;;;;;;;;;2.50;1.25;;;;;9.51;76.51;99909.00;4957654;28;45508;-77
2022/11/18 06:55:06;;;;;;;;;2.00;1.00;;;;;9.46;76.49;99917.25;4974791;28;45514;-74
2022/11/18 06:57:32;;;;;;;;;5.25;2.00;;;;;9.45;76.76;99918.22;4957520;28;47334;-77
2022/11/18 06:59:57;;;;;;;;;1.50;1.50;;;;;9.21;76.85;99892.78;4975645;28;45507;-76
2022/11/18 07:02:23;;;;;;;;;4.25;3.00;;;;;9.34;77.08;99917.94;4974892;28;45287;-75
2022/11/18 07:04:48;;;;;;;;;3.00;1.25;;;;;9.15;77.28;99910.97;4957465;28;46426;-73
2022/11/18 07:07:13;;;;;;;;;1.75;1.75;;;;;9.16;77.38;99931.44;4975708;28;49212;-80
2022/11/18 07:09:38;;;;;;;;;4.50;2.00;;;;;9.23;77.86;99941.72;4954007;28;45996;-74
2022/11/18 07:12:04;;;;;;;;;7.00;3.00;;;;;9.20;77.43;99935.66;4973915;28;45592;-76
2022/11/18 07:14:30;;;;;;;;;2.50;2.50;;;;;9.31;77.04;99942.16;4974887;28;45377;-77
2022/11/18 07:16:55;;;;;;;;;8.00;4.00;;;;;9.35;77.07;99942.88;4974668;28;45420;-74
2022/11/18 07:19:20;;;;;;;;;3.00;2.75;;;;;9.38;76.99;99950.72;4974732;28;45326;-76
2022/11/18 07:21:46;;;;;;;;;6.25;3.00;;;;;9.32;76.96;99943.91;4971289;28;45381;-76
2022/11/18 07:24:13;;;;;;;;;2.00;2.00;;;;;9.38;76.66;99972.13;4974333;28;45516;-75
2022/11/18 07:26:39;;;;;;;;;6.00;2.00;;;;;9.40;77.09;99963.09;4960160;28;46736;-76
2022/11/18 07:29:05;;;;;;;;;2.25;2.25;;;;;9.40;76.79;99964.91;4974391;28;45571;-77
2022/11/18 07:31:31;;;;;;;;;3.25;2.00;;;;;9.17;76.67;99919.78;4968706;28;45539;-76
2022/11/18 07:33:56;;;;;;;;;4.75;3.00;;;;;9.27;77.05;99963.81;4977566;28;45475;-77
2022/11/18 07:36:25;;;;;;;;;5.25;2.00;;;;;9.39;77.05;99977.41;4971114;28;45611;-77
2022/11/18 07:38:52;;;;;;;;;2.00;2.00;;;;;9.38;76.90;99981.03;4965223;28;45525;-76
2022/11/18 07:41:20;;;;;;;;;2.50;2.50;;;;;9.42;76.72;99987.09;4960322;28;45418;-77
2022/11/18 07:43:47;;;;;;;;;2.25;2.25;;;;;9.40;76.72;99994.31;4958294;28;45517;-77
2022/11/18 07:46:37;;;;;;;;;3.00;3.00;;;;;9.38;76.91;99983.69;4964276;28;45557;-77
2022/11/18 07:49:08;;;;;;;;;1.50;1.50;;;;;9.38;76.73;99986.38;4981531;28;45408;-76
2022/11/18 07:51:37;;;;;;;;;7.25;3.00;;;;;9.30;77.37;99987.72;4978096;28;45345;-78
2022/11/18 07:54:10;;;;;;;;;2.00;2.00;;;;;9.20;77.33;99978.44;4974729;28;45625;-76
2022/11/18 07:56:35;;;;;;;;;3.00;2.00;;;;;9.22;77.41;99979.22;4957917;28;45379;-76
2022/11/18 07:59:01;;;;;;;;;3.75;2.00;;;;;9.29;77.50;99991.34;4958039;28;45563;-76
2022/11/18 08:01:28;;;;;;;;;2.00;2.00;;;;;9.31;77.74;100013.53;4957755;28;45723;-77
2022/11/18 08:03:53;;;;;;;;;4.00;1.00;;;;;9.26;77.90;100004.88;4985926;28;45375;-78
2022/11/18 08:06:20;;;;;;;;;1.00;1.00;;;;;9.27;77.76;100018.16;4977562;28;45345;-77
2022/11/18 08:08:46;;;;;;;;;2.00;0.00;;;;;9.34;77.90;100026.75;4940537;28;45499;-77
2022/11/18 08:11:15;;;;;;;;;1.00;1.00;;;;;9.35;78.05;100029.34;4968472;28;45473;-76
2022/11/18 08:13:40;;;;;;;;;2.00;2.00;;;;;9.21;77.60;99999.75;4942764;28;47099;-77
2022/11/18 08:16:18;;;;;;;;;1.00;1.00;;;;;9.21;77.83;99991.75;4957828;28;46163;-76
2022/11/18 08:18:44;;;;;;;;;3.00;2.00;;;;;9.48;77.61;100034.91;4959040;28;45482;-76
2022/11/18 08:21:10;;;;;;;;;2.00;2.00;;;;;9.43;77.68;100042.31;4962993;28;45279;-76
2022/11/18 08:23:36;;;;;;;;;2.00;2.00;;;;;9.45;77.61;100035.94;4978998;28;46911;-76
2022/11/18 08:26:10;;;;;;;;;2.00;2.00;;;;;9.55;77.26;100036.31;4979063;28;45243;-77
2022/11/18 08:28:36;;;;;;;;;1.75;1.75;;;;;9.61;77.27;100041.31;4977679;28;45277;-78
2022/11/18 08:31:13;;;;;;;;;2.00;2.00;;;;;9.66;77.17;100041.97;4972165;28;45883;-77
2022/11/18 08:33:39;;;;;;;;;3.00;2.00;;;;;9.61;77.08;100033.28;4941619;28;45715;-77
2022/11/18 08:36:06;;;;;;;;;2.00;2.00;;;;;9.64;76.86;100053.69;4937927;28;45532;-77
2022/11/18 08:38:31;;;;;;;;;3.00;0.00;;;;;9.58;76.98;100046.00;4938630;28;45411;-77
2022/11/18 08:40:57;;;;;;;;;1.50;1.50;;;;;9.56;77.23;100039.84;4941620;28;45351;-78
2022/11/18 08:43:25;;;;;;;;;2.75;2.00;;;;;9.60;76.71;100034.28;4947428;28;45486;-77
2022/11/18 08:45:50;;;;;;;;;2.00;1.00;;;;;9.74;77.02;100041.56;4954004;28;45784;-78
2022/11/18 08:48:16;;;;;;;;;1.00;1.00;;;;;9.71;76.46;100036.34;4947371;28;45345;-76
2022/11/18 08:50:41;;;;;;;;;2.00;0.00;;;;;9.78;76.90;100038.63;4937851;28;45320;-77
2022/11/18 08:53:06;;;;;;;;;1.50;1.50;;;;;9.82;76.31;100034.84;4937829;28;45312;-76
2022/11/18 08:55:32;;;;;;;;;2.50;2.50;;;;;9.93;76.03;100044.97;4953874;28;46234;-76
2022/11/18 08:57:57;;;;;;;;;1.75;1.00;;;;;9.94;75.87;100044.03;4962602;28;45210;-72
2022/11/18 09:00:23;;;;;;;;;2.00;1.75;;;;;9.96;76.27;100044.78;4956675;28;45332;-73
2022/11/18 09:02:48;;;;;;;;;1.25;1.25;;;;;9.95;75.95;100037.72;4956526;28;45228;-73
2022/11/18 09:05:13;;;;;;;;;2.00;1.00;;;;;10.03;75.91;100043.53;4956247;28;46046;-71
2022/11/18 09:07:39;;;;;;;;;2.00;2.00;;;;;10.11;75.73;100048.47;4939316;28;45655;-71
2022/11/18 09:10:04;;;;;;;;;0.75;0.75;;;;;10.12;75.60;100051.03;4952423;28;45467;-72
2022/11/18 09:12:30;;;;;;;;;1.00;1.00;;;;;10.11;75.51;100046.66;4939696;28;46308;-73
2022/11/18 09:14:55;;;;;;;;;1.00;1.00;;;;;10.08;75.60;100033.41;4937308;28;46369;-71
2022/11/18 09:17:20;;;;;;;;;2.00;2.00;;;;;10.07;75.75;100031.69;4929534;28;45440;-73
2022/11/18 09:19:46;;;;;;;;;0.00;0.00;;;;;10.24;75.16;100055.75;4941267;28;45500;-71
2022/11/18 09:22:11;;;;;;;;;0.50;0.50;;;;;10.34;75.65;100060.59;4946550;28;45340;-72
2022/11/18 09:24:37;;;;;;;;;0.00;0.00;;;;;10.36;74.70;100066.75;4956396;28;45318;-73
2022/11/18 09:27:04;;;;;;;;;1.50;1.50;;;;;10.32;75.46;100051.78;4955944;28;45889;-74
2022/11/18 09:29:30;;;;;;;;;2.00;2.00;;;;;10.45;75.00;100071.59;4956835;28;45490;-76
2022/11/18 09:31:55;;;;;;;;;2.00;1.00;;;;;10.49;75.04;100063.28;4968102;28;45519;-77
2022/11/18 09:34:22;;;;;;;;;3.00;2.00;;;;;10.51;74.53;100071.25;4959700;28;45930;-73
2022/11/18 09:36:47;;;;;;;;;1.00;1.00;;;;;10.39;74.06;100046.00;4974236;28;45162;-73
2022/11/18 09:39:12;;;;;;;;;1.00;1.00;;;;;10.53;74.38;100070.22;4958503;28;45570;-72
2022/11/18 09:41:45;;;;;;;;;2.00;1.00;;;;;10.53;74.67;100083.63;4975961;28;45279;-72
2022/11/18 09:44:47;;;;;;;;;3.00;2.00;;;;;10.51;74.99;100077.47;4975828;28;46242;-72
2022/11/18 09:47:26;;;;;;;;;2.00;2.00;;;;;10.52;74.83;100081.88;4974344;28;45475;-72
2022/11/18 09:49:55;;;;;;;;;1.00;1.00;;;;;10.58;74.83;100081.53;4956745;28;45417;-73
2022/11/18 09:52:25;;;;;;;;;5.25;2.25;;;;;10.66;74.93;100082.91;4971803;28;45519;-73
2022/11/18 09:54:51;;;;;;;;;4.00;1.50;;;;;10.71;74.18;100078.16;4955989;28;45475;-73
2022/11/18 09:57:33;;;;;;;;;2.25;1.25;;;;;10.68;74.07;100067.59;4971107;28;45618;-72
2022/11/18 10:00:00;;;;;;;;;2.00;0.00;;;;;10.74;73.87;100078.84;4976200;28;45749;-73
2022/11/18 10:02:44;;;;;;;;;2.50;0.50;;;;;10.82;74.35;100090.00;4958378;28;45397;-76
2022/11/18 10:05:19;;;;;;;;;1.50;1.50;;;;;10.89;73.61;100099.41;4975131;28;45599;-77
2022/11/18 10:07:57;;;;;;;;;0.00;0.00;;;;;10.94;73.35;100096.47;4975991;28;45314;-73
2022/11/18 10:10:50;;;;;;;;;2.00;0.00;;;;;11.02;73.41;100104.06;4975132;28;45701;-72
2022/11/18 10:13:29;;;;;;;;;0.00;0.00;;;;;10.99;73.26;100092.56;4957548;28;45684;-73
2022/11/18 10:16:04;;;;;;;;;1.00;1.00;;;;;11.10;72.99;100107.19;4975155;28;46418;-74
2022/11/18 10:18:41;;;;;;;;;0.75;0.75;;;;;11.21;73.02;100110.09;4974853;28;45323;-75
2022/11/18 10:21:06;;;;;;;;;0.75;0.00;;;;;11.22;72.85;100104.66;4974994;28;45440;-73
2022/11/18 10:23:53;;;;;;;;;1.00;1.00;;;;;11.28;72.57;100101.59;4974744;28;45523;-72
2022/11/18 10:26:35;;;;;;;;;1.00;1.00;;;;;11.39;72.28;100103.66;4974951;28;45838;-74
2022/11/18 10:29:01;;;;;;;;;1.75;0.50;;;;;11.48;71.48;100111.16;4974862;28;45560;-73
2022/11/18 10:31:27;;;;;;;;;2.00;0.75;;;;;11.50;71.56;100084.22;4974877;28;45370;-72
2022/11/18 10:34:00;;;;;;;;;0.75;0.75;;;;;11.64;71.06;100097.69;4974797;28;45582;-73
2022/11/18 10:36:32;;;;;;;;;2.00;0.75;;;;;11.79;70.88;100106.66;4974916;28;45354;-73
2022/11/18 10:39:11;;;;;;;;;1.00;1.00;;;;;11.89;70.17;100114.06;4973912;28;45550;-74
2022/11/18 10:41:41;;;;;;;;;0.00;0.00;;;;;11.95;70.30;100111.00;4974748;28;45349;-73
2022/11/18 10:44:27;;;;;;;;;0.00;0.00;;;;;12.06;69.77;100105.84;4974766;28;45525;-71
2022/11/18 10:46:53;;;;;;;;;1.00;1.00;;;;;12.24;68.67;100111.88;4974467;28;45317;-73
2022/11/18 10:49:18;;;;;;;;;2.00;0.00;;;;;12.43;68.18;100104.34;4955600;28;45410;-72
2022/11/18 10:51:46;;;;;;;;;0.75;0.00;;;;;12.67;67.33;100112.72;4954621;28;45719;-73
2022/11/18 10:54:14;;;;;;;;;2.50;0.50;;;;;12.82;66.60;100105.47;4955477;28;45286;-76
2022/11/18 10:56:55;;;;;;;;;0.00;0.00;;;;;13.09;66.13;100110.84;4965089;28;46182;-72
2022/11/18 10:59:20;;;;;;;;;0.00;0.00;;;;;13.32;66.29;100101.28;4975279;28;45603;-76
2022/11/18 11:02:02;;;;;;;;;1.50;1.00;;;;;13.52;64.89;100098.97;4974997;28;45348;-72
2022/11/18 11:04:29;;;;;;;;;1.75;1.00;;;;;13.72;63.90;100108.34;4965688;28;45497;-73
2022/11/18 11:06:57;;;;;;;;;1.50;1.00;;;;;14.05;61.81;100098.88;4974995;28;45413;-72
2022/11/18 11:09:27;;;;;;;;;2.75;2.00;;;;;14.57;61.97;100098.75;4978328;28;45291;-75
2022/11/18 11:12:11;;;;;;;;;1.00;1.00;;;;;15.27;60.02;100082.72;4977256;28;45223;-77
2022/11/18 11:14:53;;;;;;;;;1.00;1.00;;;;;16.57;55.04;100113.00;4960222;28;46114;-73
2022/11/18 11:17:34;;;;;;;;;3.00;3.00;;;;;17.17;52.02;100097.31;4977680;28;45427;-73
2022/11/18 11:20:38;;;;;;;;;0.00;0.00;;;;;17.51;51.42;100104.31;4978172;28;45475;-76
2022/11/18 11:23:14;;;;;;;;;2.50;0.00;;;;;18.07;49.89;100114.88;4976744;28;45532;-76
2022/11/18 11:26:04;;;;;;;;;2.00;2.00;;;;;17.91;50.09;100107.22;4981055;28;45563;-79
2022/11/18 11:28:37;;;;;;;;;3.00;1.00;;;;;17.66;50.33;100102.19;4983260;28;45420;-79
2022/11/18 11:31:32;;;;;;;;;2.00;1.00;;;;;17.40;50.20;100105.22;4967386;28;45309;-80
2022/11/18 11:34:18;;;;;;;;;1.00;1.00;;;;;17.06;51.22;100102.75;4979109;28;45361;-81
2022/11/18 11:37:06;;;;;;;;;0.75;0.75;;;;;16.88;51.58;100088.88;4979206;28;45700;-77
2022/11/18 11:40:09;;;;;;;;;4.00;4.00;;;;;16.80;52.69;100113.88;4977479;28;45587;-76
2022/11/18 11:42:47;;;;;;;;;3.25;2.00;;;;;16.45;52.92;100099.59;4977485;28;45538;-71
2022/11/18 11:45:28;;;;;;;;;4.00;2.25;;;;;15.83;54.11;100103.56;4977701;28;45381;-71
2022/11/18 11:48:04;;;;;;;;;2.00;2.00;;;;;15.48;55.45;100106.25;4978071;28;45442;-73
2022/11/18 11:50:53;;;;;;;;;2.00;2.00;;;;;15.08;56.86;100105.72;4977162;28;46442;-75
2022/11/18 11:53:42;;;;;;;;;1.00;1.00;;;;;14.68;57.50;100107.78;4976813;28;45406;-73
2022/11/18 11:56:14;;;;;;;;;2.00;2.00;;;;;14.59;57.72;100103.06;4966325;28;45472;-72
2022/11/18 11:59:05;;;;;;;;;2.75;2.25;;;;;14.40;58.92;100099.97;4977025;28;45468;-73
2022/11/18 12:01:51;;;;;;;;;3.00;3.00;;;;;14.47;58.66;100098.53;4977351;28;45329;-73
2022/11/18 12:04:36;;;;;;;;;2.00;1.00;;;;;14.54;58.43;100110.66;4977340;28;45261;-73
2022/11/18 12:07:04;;;;;;;;;1.00;1.00;;;;;14.32;58.89;100094.22;4977229;28;45179;-74
2022/11/18 12:09:32;;;;;;;;;1.25;1.00;;;;;14.36;59.34;100111.94;4977081;28;45625;-73
2022/11/18 12:12:33;;;;;;;;;4.25;2.75;;;;;14.24;59.35;100088.53;4976991;28;46804;-72
2022/11/18 12:15:18;;;;;;;;;1.25;1.25;;;;;14.34;59.33;100105.78;4960897;28;45387;-72
2022/11/18 12:18:02;;;;;;;;;5.00;2.00;;;;;14.43;59.40;100106.97;4957458;28;45433;-73
2022/11/18 12:20:34;;;;;;;;;1.25;1.25;;;;;14.51;58.96;100112.69;4959098;28;45484;-73
2022/11/18 12:23:19;;;;;;;;;3.00;2.00;;;;;14.39;59.05;100106.31;4977061;28;46243;-72
2022/11/18 12:26:00;;;;;;;;;1.00;1.00;;;;;14.31;58.73;100105.97;4976864;28;45318;-72
2022/11/18 12:28:42;;;;;;;;;1.00;1.00;;;;;14.22;59.22;100122.81;4977288;28;45326;-73
2022/11/18 12:31:16;;;;;;;;;2.00;2.00;;;;;14.08;59.86;100109.47;4976543;28;45314;-70
2022/11/18 12:33:55;;;;;;;;;2.00;1.00;;;;;13.94;59.78;100121.22;4975934;28;46394;-72
2022/11/18 12:36:32;;;;;;;;;1.00;1.00;;;;;13.98;59.82;100120.00;4976128;28;45395;-74
2022/11/18 12:39:19;;;;;;;;;3.50;2.00;;;;;14.00;60.25;100118.94;4976976;28;45339;-76
2022/11/18 12:44:31;;;;;;;;;3.00;2.00;;;;;14.03;60.19;100112.50;4977978;28;45353;-76
2022/11/18 12:47:00;;;;;;;;;3.25;1.75;;;;;14.03;60.34;100118.72;4961130;28;45335;-74
2022/11/18 12:49:26;;;;;;;;;1.00;1.00;;;;;14.09;60.40;100108.50;4964988;28;45497;-72
2022/11/18 12:52:03;;;;;;;;;1.25;1.25;;;;;14.09;60.04;100106.66;4975423;28;45597;-76
2022/11/18 12:54:45;;;;;;;;;2.50;1.00;;;;;13.96;59.62;100101.25;4970518;28;45648;-77
2022/11/18 12:57:20;;;;;;;;;1.50;1.50;;;;;14.00;59.30;100118.09;4951225;28;45284;-77
2022/11/18 12:59:47;;;;;;;;;2.00;2.00;;;;;13.87;60.05;100117.19;4966708;28;45344;-76
2022/11/18 13:02:25;;;;;;;;;1.00;1.00;;;;;13.89;59.90;100107.19;4964603;28;45499;-74
2022/11/18 13:05:03;;;;;;;;;3.75;2.25;;;;;13.91;59.74;100108.81;4960687;28;46448;-76
2022/11/18 13:10:23;;;;;;;;;2.00;0.00;;;;;13.79;59.98;100114.16;4977455;28;45542;-75
2022/11/18 13:12:50;;;;;;;;;1.00;1.00;;;;;13.72;59.74;100108.34;4980979;28;45279;-76
2022/11/18 13:18:30;;;;;;;;;2.00;1.00;;;;;13.59;60.29;100121.81;4975834;28;45373;-76
2022/11/18 13:23:50;;;;;;;;;1.00;1.00;;;;;13.67;60.53;100105.13;4973889;28;45386;-78
2022/11/18 13:23:53;;;;;;;;;1.00;1.00;;;;;13.83;60.13;100118.41;4965520;28;45475;-76
2022/11/18 13:26:21;;;;;;;;;1.00;1.00;;;;;14.00;60.31;100120.78;4971755;28;46047;-76
2022/11/18 13:29:14;;;;;;;;;1.25;1.00;;;;;14.12;59.55;100127.97;4956304;28;45398;-78
2022/11/18 13:32:02;;;;;;;;;3.25;0.25;;;;;14.08;58.47;100122.94;4963672;28;45531;-78
2022/11/18 13:34:30;;;;;;;;;0.50;0.50;;;;;13.96;58.76;100112.03;4958157;28;46395;-79
2022/11/18 13:36:59;;;;;;;;;1.00;0.00;;;;;13.93;58.26;100095.22;4975615;28;45567;-76
2022/11/18 13:39:31;;;;;;;;;1.00;1.00;;;;;14.18;57.92;100122.19;4940862;28;45468;-77
2022/11/18 13:42:06;;;;;;;;;1.75;1.75;;;;;14.33;58.09;100104.03;4971297;28;45418;-78
2022/11/18 13:44:36;;;;;;;;;2.00;0.50;;;;;14.50;57.14;100111.81;4962907;28;45551;-76
2022/11/18 13:47:11;;;;;;;;;1.00;1.00;;;;;14.53;56.04;100121.53;4975514;28;45213;-77
2022/11/18 13:49:36;;;;;;;;;1.50;0.50;;;;;14.48;56.00;100113.75;4975475;28;45500;-80
2022/11/18 13:52:02;;;;;;;;;0.00;0.00;;;;;14.33;56.60;100098.66;4976760;28;45365;-77
2022/11/18 13:54:28;;;;;;;;;1.00;0.00;;;;;14.29;55.88;100130.34;4976421;28;45539;-76
2022/11/18 13:56:53;;;;;;;;;0.00;0.00;;;;;14.15;57.24;100114.31;4958520;28;46132;-76
2022/11/18 13:59:22;;;;;;;;;1.00;1.00;;;;;14.30;57.05;100121.28;4954120;28;46289;-78
2022/11/18 14:01:57;;;;;;;;;0.00;0.00;;;;;14.85;56.16;100111.09;4966008;28;45353;-77
2022/11/18 14:04:26;;;;;;;;;0.00;0.00;;;;;15.31;55.44;100093.16;4972272;28;47482;-77
2022/11/18 14:06:52;;;;;;;;;0.75;0.75;;;;;15.78;54.27;100118.44;4957333;28;48022;-76
2022/11/18 14:09:24;;;;;;;;;1.00;1.00;;;;;16.05;52.05;100113.59;4975287;28;45293;-75
2022/11/18 14:12:06;;;;;;;;;1.00;1.00;;;;;15.91;52.31;100116.50;4975303;28;45341;-75
2022/11/18 14:14:38;;;;;;;;;2.00;0.25;;;;;15.77;52.81;100122.97;4958413;28;45440;-77
2022/11/18 14:17:17;;;;;;;;;2.25;1.00;;;;;15.59;53.21;100123.53;4974058;28;46189;-76
2022/11/18 14:19:43;;;;;;;;;1.00;1.00;;;;;15.38;54.13;100121.47;4975069;28;45409;-76
2022/11/18 14:22:26;;;;;;;;;0.00;0.00;;;;;15.13;54.49;100127.84;4957558;28;45492;-77
2022/11/18 14:24:59;;;;;;;;;0.00;0.00;;;;;15.17;55.61;100128.47;4974659;28;45516;-77
2022/11/18 14:27:39;;;;;;;;;2.00;1.00;;;;;15.14;56.58;100126.00;4973472;28;46376;-78
2022/11/18 14:30:33;;;;;;;;;1.75;0.75;;;;;15.41;57.33;100125.75;4957378;28;45409;-77
2022/11/18 14:33:21;;;;;;;;;2.00;2.00;;;;;15.76;54.73;100126.66;4956823;28;45443;-77
2022/11/18 14:35:58;;;;;;;;;0.75;0.75;;;;;15.82;54.26;100117.22;4961406;28;45501;-76
2022/11/18 14:38:48;;;;;;;;;1.75;1.75;;;;;16.02;52.26;100132.75;4959509;28;46113;-75
2022/11/18 14:41:45;;;;;;;;;2.75;2.75;;;;;16.13;53.21;100134.63;4951323;28;45424;-75
2022/11/18 14:44:02;;;;;;;;;1.00;1.00;;;;;15.84;52.93;100129.63;4951798;28;45583;-76
2022/11/18 14:46:27;;;;;;;;;1.00;0.25;;;;;15.56;53.05;100129.19;4956021;28;45455;-75
2022/11/18 14:48:52;;;;;;;;;4.00;2.00;;;;;15.23;54.25;100122.59;4935719;28;48310;-76
2022/11/18 14:51:18;;;;;;;;;3.00;1.75;;;;;15.04;54.72;100127.66;4937132;28;45280;-75
2022/11/18 14:53:43;;;;;;;;;1.00;1.00;;;;;14.81;54.85;100123.94;4936080;28;45477;-76
2022/11/18 14:56:23;;;;;;;;;2.75;1.00;;;;;14.45;55.27;100084.34;4941800;28;45556;-74
2022/11/18 14:58:48;;;;;;;;;1.00;1.00;;;;;14.50;55.82;100151.41;4936424;28;46108;-76
2022/11/18 15:01:14;;;;;;;;;1.25;1.25;;;;;14.22;56.39;100134.47;4933352;28;45508;-75
2022/11/18 15:03:41;;;;;;;;;3.00;3.00;;;;;14.19;56.53;100142.78;4936413;28;45326;-76
2022/11/18 15:06:14;;;;;;;;;0.00;0.00;;;;;14.10;57.14;100154.22;4936330;28;45499;-75
2022/11/18 15:08:41;;;;;;;;;1.00;1.00;;;;;14.02;57.20;100145.78;4936240;28;46654;-76
2022/11/18 15:11:07;;;;;;;;;2.25;1.00;;;;;13.90;57.71;100144.81;4945869;28;45243;-74
2022/11/18 15:13:32;;;;;;;;;1.75;1.00;;;;;13.89;57.94;100159.25;4955638;28;45462;-75
2022/11/18 15:15:58;;;;;;;;;2.00;1.00;;;;;13.56;58.04;100122.00;4955761;28;45489;-74
2022/11/18 15:18:24;;;;;;;;;1.00;1.00;;;;;13.66;58.36;100159.97;4933911;28;48163;-75
2022/11/18 15:20:50;;;;;;;;;1.00;1.00;;;;;13.68;58.99;100171.50;4947376;28;45354;-76
2022/11/18 15:23:16;;;;;;;;;1.75;1.75;;;;;13.58;59.57;100173.94;4955648;28;45483;-77
2022/11/18 15:25:41;;;;;;;;;1.00;1.00;;;;;13.48;59.99;100171.97;4955363;28;45464;-75
2022/11/18 15:28:09;;;;;;;;;3.00;1.00;;;;;13.46;60.05;100180.13;4954492;28;46012;-77
2022/11/18 15:30:34;;;;;;;;;1.50;1.50;;;;;13.50;60.28;100189.75;4936968;28;45338;-75
2022/11/18 15:33:03;;;;;;;;;0.25;0.25;;;;;13.30;60.43;100165.97;4973020;28;45263;-75
2022/11/18 15:35:28;;;;;;;;;0.00;0.00;;;;;13.27;60.87;100192.25;4968343;28;45864;-75
2022/11/18 15:37:54;;;;;;;;;2.00;2.00;;;;;13.20;61.10;100195.31;4974605;28;46043;-76
2022/11/18 15:40:19;;;;;;;;;4.00;2.75;;;;;13.25;61.47;100203.97;4975217;28;45503;-75
2022/11/18 15:42:46;;;;;;;;;2.00;2.00;;;;;13.02;61.25;100185.72;4974678;28;46314;-75
2022/11/18 15:45:11;;;;;;;;;1.25;1.25;;;;;13.11;61.89;100208.47;4974982;28;45480;-75
2022/11/18 15:47:36;;;;;;;;;1.75;1.75;;;;;12.99;62.17;100196.69;4974824;28;45511;-76
2022/11/18 15:50:02;;;;;;;;;2.00;2.00;;;;;13.02;62.26;100219.84;4962003;28;45386;-76
2022/11/18 15:52:27;;;;;;;;;4.25;1.75;;;;;13.00;62.81;100219.09;4967041;28;45553;-75
2022/11/18 15:54:53;;;;;;;;;7.25;2.75;;;;;13.00;62.89;100228.03;4977349;28;45344;-71
2022/11/18 15:57:19;;;;;;;;;4.00;4.00;;;;;12.87;62.74;100201.03;4971283;28;46135;-75
2022/11/18 15:59:45;;;;;;;;;5.00;5.00;;;;;13.01;63.03;100224.38;4957745;28;45362;-73
2022/11/18 16:02:11;;;;;;;;;8.75;3.00;;;;;13.03;63.15;100230.50;4957928;28;45267;-74
2022/11/18 16:04:36;;;;;;;;;4.00;4.00;;;;;12.97;63.42;100235.41;4958220;28;45713;-78
2022/11/18 16:07:02;;;;;;;;;2.75;2.75;;;;;12.93;63.67;100232.03;4950074;28;47012;-80
2022/11/18 16:17:44;;;;;;;;;3.25;2.00;;;;;12.52;62.83;100230.16;4975825;28;45527;-74
2022/11/18 16:20:10;;;;;;;;;4.25;2.00;;;;;12.61;63.26;100243.97;4956860;28;45445;-75
2022/11/18 16:22:35;;;;;;;;;5.50;1.75;;;;;12.59;63.71;100244.06;4970048;28;45310;-75
2022/11/18 16:25:01;;;;;;;;;3.00;2.00;;;;;12.49;63.69;100243.81;4976512;28;45623;-74
2022/11/18 16:27:26;;;;;;;;;2.25;2.00;;;;;12.35;63.61;100227.63;4946757;28;47290;-75
2022/11/18 16:29:51;;;;;;;;;3.00;1.75;;;;;12.45;63.57;100257.50;4956557;28;45353;-73
2022/11/18 16:32:17;;;;;;;;;5.50;2.00;;;;;12.36;63.85;100250.88;4957869;28;45446;-74
2022/11/18 16:34:42;;;;;;;;;3.75;1.75;;;;;12.35;63.98;100261.72;4957004;28;45520;-75
2022/11/18 16:37:07;;;;;;;;;1.50;1.50;;;;;12.30;64.28;100259.31;4957610;28;45332;-75
2022/11/18 16:39:33;;;;;;;;;3.50;3.50;;;;;12.31;64.32;100261.06;4957244;28;45372;-73
2022/11/18 16:42:02;;;;;;;;;3.00;3.00;;;;;12.29;64.52;100264.78;4957265;28;45334;-73
2022/11/18 16:44:29;;;;;;;;;4.00;4.00;;;;;12.29;64.45;100268.34;4955933;28;46286;-70
2022/11/18 16:46:56;;;;;;;;;4.00;4.00;;;;;12.29;63.87;100271.03;4951692;28;47210;-77
2022/11/18 16:49:24;;;;;;;;;2.00;2.00;;;;;12.24;64.26;100281.19;4977137;28;45420;-79
2022/11/18 16:51:51;;;;;;;;;5.25;5.25;;;;;12.24;64.51;100275.81;4976592;28;45430;-75
2022/11/18 16:54:28;;;;;;;;;4.50;3.00;;;;;12.16;64.35;100286.16;4975953;28;45628;-76
2022/11/18 16:56:55;;;;;;;;;3.00;3.00;;;;;12.08;64.30;100270.47;4976332;28;45472;-75
2022/11/18 16:59:23;;;;;;;;;2.00;2.00;;;;;12.17;64.28;100298.63;4976945;28;45224;-72
2022/11/18 17:01:50;;;;;;;;;5.50;3.00;;;;;12.18;64.14;100303.03;4976530;28;45369;-73
2022/11/18 17:04:16;;;;;;;;;4.00;4.00;;;;;12.17;64.67;100300.44;4975669;28;45558;-72
2022/11/18 17:06:42;;;;;;;;;3.00;3.00;;;;;12.17;64.77;100298.63;4976029;28;46057;-73
2022/11/18 17:09:12;;;;;;;;;8.25;2.25;;;;;12.29;64.73;100313.16;4976109;28;45335;-74
2022/11/18 17:11:37;;;;;;;;;3.00;3.00;;;;;12.21;64.88;100286.75;4959120;28;45520;-72
2022/11/18 17:14:02;;;;;;;;;3.50;2.00;;;;;12.31;64.54;100304.06;4976587;28;45640;-75
2022/11/18 17:16:28;;;;;;;;;5.50;5.50;;;;;12.38;64.60;100304.53;4964510;28;45338;-72
2022/11/18 17:18:56;;;;;;;;;8.25;5.25;;;;;12.41;64.16;100313.31;4976608;28;45372;-72
2022/11/18 17:21:23;;;;;;;;;2.50;2.50;;;;;12.29;64.09;100299.72;4976367;28;45349;-76
2022/11/18 17:23:49;;;;;;;;;5.75;5.50;;;;;12.30;64.36;100304.13;4975896;28;45407;-70
2022/11/18 17:26:17;;;;;;;;;3.50;3.50;;;;;12.29;64.46;100305.97;4975794;28;47131;-71
2022/11/18 17:28:42;;;;;;;;;8.00;8.00;;;;;12.30;64.65;100306.81;4976307;28;45402;-72
2022/11/18 17:31:21;;;;;;;;;6.50;6.50;;;;;12.30;64.57;100312.22;4975616;28;45291;-74
2022/11/18 17:33:48;;;;;;;;;5.00;5.00;;;;;12.22;64.24;100301.91;4975985;28;45404;-75
2022/11/18 17:36:18;;;;;;;;;4.00;4.00;;;;;12.28;64.65;100316.78;4957418;28;46594;-75